createdAt,value
2017-11-21T00:00:30.498Z,3.53
2017-11-21T00:02:57.972Z,3.60
2017-11-21T00:05:25.445Z,2.77
2017-11-21T00:07:52.942Z,3.43
2017-11-21T00:10:21.194Z,4.80
2017-11-21T00:12:48.657Z,2.77
2017-11-21T00:15:16.200Z,3.93
2017-11-21T00:17:43.694Z,3.90
2017-11-21T00:20:11.174Z,3.80
2017-11-21T00:22:38.700Z,2.63
2017-11-21T00:25:06.926Z,3.03
2017-11-21T00:27:34.480Z,4.13
2017-11-21T00:30:02.774Z,3.80
2017-11-21T00:32:30.268Z,8.30
2017-11-21T00:34:58.535Z,3.37
2017-11-21T00:37:26.026Z,4.33
2017-11-21T00:39:53.506Z,2.80
2017-11-21T00:42:21.000Z,3.83
2017-11-21T00:44:48.496Z,4.47
2017-11-21T00:47:15.999Z,3.03
2017-11-21T00:49:43.477Z,5.00
2017-11-21T00:52:11.752Z,2.40
2017-11-21T00:54:39.259Z,2.10
2017-11-21T00:57:07.588Z,5.20
2017-11-21T00:59:35.062Z,3.60
2017-11-21T01:02:02.544Z,3.27
2017-11-21T01:04:30.019Z,2.30
2017-11-21T01:06:57.543Z,3.00
2017-11-21T01:09:25.018Z,4.93
2017-11-21T01:11:52.478Z,2.27
2017-11-21T01:14:19.973Z,2.27
2017-11-21T01:16:47.436Z,3.83
2017-11-21T01:19:15.007Z,2.37
2017-11-21T01:21:43.291Z,2.77
2017-11-21T01:24:10.753Z,3.20
2017-11-21T01:26:38.225Z,6.43
2017-11-21T01:29:05.729Z,4.10
2017-11-21T01:31:33.214Z,3.70
2017-11-21T01:34:00.692Z,3.07
2017-11-21T01:36:28.969Z,4.53
2017-11-21T01:38:56.442Z,3.00
2017-11-21T01:41:23.945Z,3.60
2017-11-21T01:43:51.477Z,4.33
2017-11-21T01:46:19.727Z,5.10
2017-11-21T01:48:47.190Z,3.20
2017-11-21T01:51:14.728Z,3.30
2017-11-21T01:53:42.202Z,4.70
2017-11-21T01:56:09.699Z,4.43
2017-11-21T01:58:37.235Z,7.57
2017-11-21T02:01:04.708Z,4.80
2017-11-21T02:03:32.283Z,6.17
2017-11-21T02:05:59.759Z,5.80
2017-11-21T02:08:27.241Z,5.07
2017-11-21T02:10:54.728Z,4.87
2017-11-21T02:13:22.235Z,5.80
2017-11-21T02:15:50.599Z,5.33
2017-11-21T02:18:18.842Z,3.07
2017-11-21T02:20:46.346Z,4.50
2017-11-21T02:23:13.841Z,4.83
2017-11-21T02:25:41.410Z,4.60
2017-11-21T02:28:08.887Z,3.37
2017-11-21T02:30:36.420Z,4.33
2017-11-21T02:33:03.896Z,4.90
2017-11-21T02:35:32.177Z,5.43
2017-11-21T02:37:59.682Z,2.50
2017-11-21T02:40:27.923Z,4.17
2017-11-21T02:42:55.410Z,4.27
2017-11-21T02:45:22.953Z,4.20
2017-11-21T02:47:51.212Z,5.87
2017-11-21T02:50:18.740Z,5.80
2017-11-21T02:52:46.216Z,4.07
2017-11-21T02:55:14.444Z,6.40
2017-11-21T02:57:41.934Z,4.97
2017-11-21T03:00:09.401Z,3.03
2017-11-21T03:02:36.887Z,3.03
2017-11-21T03:05:04.365Z,3.70
2017-11-21T03:07:31.850Z,3.90
2017-11-21T03:09:59.319Z,2.87
2017-11-21T03:12:26.814Z,2.77
2017-11-21T03:14:54.297Z,2.63
2017-11-21T03:17:21.782Z,4.37
2017-11-21T03:19:49.276Z,2.67
2017-11-21T03:22:28.549Z,5.20
2017-11-21T03:25:07.864Z,2.87
2017-11-21T03:27:35.400Z,3.73
2017-11-21T03:30:02.862Z,3.10
2017-11-21T03:32:30.332Z,3.43
2017-11-21T03:34:57.867Z,2.97
2017-11-21T03:37:25.337Z,3.30
2017-11-21T03:39:52.824Z,5.50
2017-11-21T03:42:20.294Z,3.97
2017-11-21T03:44:47.800Z,2.30
2017-11-21T03:47:15.320Z,2.57
2017-11-21T03:49:42.809Z,5.23
2017-11-21T03:52:10.292Z,2.20
2017-11-21T03:54:37.770Z,1.70
2017-11-21T03:57:05.239Z,3.27
2017-11-21T03:59:33.551Z,2.10
2017-11-21T04:02:01.034Z,3.50
2017-11-21T04:04:28.528Z,1.80
2017-11-21T04:06:56.006Z,1.80
2017-11-21T04:09:23.528Z,1.77
2017-11-21T04:11:51.075Z,2.57
2017-11-21T04:14:18.549Z,1.87
2017-11-21T04:16:46.037Z,1.20
2017-11-21T04:19:13.512Z,2.17
2017-11-21T04:21:41.779Z,2.83
2017-11-21T04:24:09.260Z,1.90
2017-11-21T04:26:36.746Z,2.50
2017-11-21T04:29:04.241Z,1.60
2017-11-21T04:31:31.705Z,1.97
2017-11-21T04:33:59.186Z,2.00
2017-11-21T04:36:26.658Z,1.80
2017-11-21T04:38:54.199Z,1.80
2017-11-21T04:41:21.728Z,6.10
2017-11-21T04:43:49.198Z,5.10
2017-11-21T04:46:16.678Z,3.73
2017-11-21T04:48:44.152Z,5.03
2017-11-21T04:51:11.633Z,2.30
2017-11-21T04:53:39.147Z,2.20
2017-11-21T04:56:06.655Z,2.87
2017-11-21T04:58:34.147Z,3.40
2017-11-21T05:01:02.391Z,2.60
2017-11-21T05:03:29.874Z,3.60
2017-11-21T05:05:57.346Z,2.37
2017-11-21T05:08:24.821Z,1.40
2017-11-21T05:10:52.373Z,4.07
2017-11-21T05:13:20.622Z,2.47
2017-11-21T05:15:48.166Z,2.70
2017-11-21T05:18:16.404Z,2.10
2017-11-21T05:20:43.899Z,2.63
2017-11-21T05:23:11.407Z,3.40
2017-11-21T05:25:38.921Z,2.07
2017-11-21T05:28:07.180Z,3.63
2017-11-21T05:30:34.663Z,5.03
2017-11-21T05:33:13.986Z,2.50
2017-11-21T05:35:41.466Z,3.57
2017-11-21T05:38:09.031Z,3.70
2017-11-21T05:40:37.301Z,3.60
2017-11-21T05:43:05.600Z,3.10
2017-11-21T05:45:33.091Z,4.60
2017-11-21T05:48:00.563Z,3.37
2017-11-21T05:50:28.048Z,4.10
2017-11-21T05:52:55.561Z,4.73
2017-11-21T05:55:23.807Z,3.23
2017-11-21T05:57:51.297Z,4.10
2017-11-21T06:00:18.780Z,3.60
2017-11-21T06:02:46.356Z,4.47
2017-11-21T06:05:13.906Z,3.10
2017-11-21T06:07:41.391Z,4.47
2017-11-21T06:10:08.874Z,3.83
2017-11-21T06:12:36.391Z,3.90
2017-11-21T06:15:03.875Z,4.23
2017-11-21T06:17:31.443Z,14.23
2017-11-21T06:19:58.985Z,3.50
2017-11-21T06:22:26.457Z,3.17
2017-11-21T06:24:53.970Z,4.00
2017-11-21T06:27:22.233Z,3.17
2017-11-21T06:29:49.762Z,3.80
2017-11-21T06:32:17.241Z,4.60
2017-11-21T06:34:44.741Z,3.07
2017-11-21T06:37:12.217Z,3.77
2017-11-21T06:39:39.761Z,9.07
2017-11-21T06:42:07.262Z,7.47
2017-11-21T06:44:34.730Z,4.10
2017-11-21T06:47:02.221Z,2.60
2017-11-21T06:49:29.822Z,3.13
2017-11-21T06:51:58.079Z,2.90
2017-11-21T06:54:25.581Z,3.33
2017-11-21T06:56:53.057Z,3.13
2017-11-21T06:59:20.573Z,3.50
2017-11-21T07:01:48.080Z,6.10
2017-11-21T07:04:15.577Z,3.73
2017-11-21T07:06:43.071Z,3.30
2017-11-21T07:09:10.577Z,4.03
2017-11-21T07:11:38.062Z,3.90
2017-11-21T07:14:05.550Z,3.07
2017-11-21T07:16:33.033Z,4.03
2017-11-21T07:19:00.509Z,3.43
2017-11-21T07:21:28.000Z,5.43
2017-11-21T07:23:55.594Z,6.07
2017-11-21T07:26:23.230Z,4.37
2017-11-21T07:28:50.870Z,2.90
2017-11-21T07:31:19.158Z,5.70
2017-11-21T07:33:47.424Z,4.63
2017-11-21T07:36:14.929Z,2.70
2017-11-21T07:38:42.416Z,5.90
2017-11-21T07:41:09.911Z,2.40
2017-11-21T07:43:37.409Z,6.40
2017-11-21T07:46:06.589Z,4.20
2017-11-21T07:48:34.225Z,2.30
2017-11-21T07:51:01.766Z,5.07
2017-11-21T07:53:29.294Z,4.83
2017-11-21T07:55:56.794Z,2.90
2017-11-21T07:58:24.299Z,4.60
2017-11-21T08:00:51.838Z,2.33
2017-11-21T08:03:20.080Z,7.40
2017-11-21T08:05:47.573Z,3.13
2017-11-21T08:08:15.088Z,2.60
2017-11-21T08:10:42.747Z,3.83
2017-11-21T08:13:10.321Z,2.70
2017-11-21T08:15:37.995Z,2.67
2017-11-21T08:18:05.528Z,2.17
2017-11-21T08:20:33.015Z,2.87
2017-11-21T08:23:00.516Z,2.60
2017-11-21T08:25:28.762Z,3.40
2017-11-21T08:27:56.245Z,5.70
2017-11-21T08:30:23.723Z,3.53
2017-11-21T08:32:51.236Z,3.87
2017-11-21T08:35:18.729Z,4.80
2017-11-21T08:37:46.309Z,2.90
2017-11-21T08:40:13.956Z,3.63
2017-11-21T08:42:41.421Z,1.70
2017-11-21T08:45:09.675Z,3.63
2017-11-21T08:47:37.154Z,8.67
2017-11-21T08:50:04.642Z,5.03
2017-11-21T08:52:32.162Z,2.90
2017-11-21T08:54:59.698Z,3.10
2017-11-21T08:57:27.180Z,5.83
2017-11-21T09:02:33.474Z,2.87
2017-11-21T09:05:00.973Z,4.53
2017-11-21T09:07:28.526Z,7.20
2017-11-21T09:09:56.093Z,3.60
2017-11-21T09:12:23.720Z,3.07
2017-11-21T09:14:51.217Z,2.73
2017-11-21T09:17:19.498Z,6.23
2017-11-21T09:19:53.823Z,2.23
2017-11-21T09:22:21.309Z,4.37
2017-11-21T09:24:48.865Z,3.40
2017-11-21T09:27:16.358Z,3.17
2017-11-21T09:29:44.607Z,2.97
2017-11-21T09:32:12.107Z,2.27
2017-11-21T09:34:39.574Z,2.23
2017-11-21T09:37:07.165Z,3.07
2017-11-21T09:39:34.633Z,4.40
2017-11-21T09:42:02.105Z,2.10
2017-11-21T09:44:29.618Z,2.80
2017-11-21T09:46:57.123Z,2.20
2017-11-21T09:49:24.610Z,5.73
2017-11-21T09:51:52.098Z,2.90
2017-11-21T09:54:20.476Z,1.90
2017-11-21T09:56:48.893Z,3.80
2017-11-21T09:59:16.376Z,2.70
2017-11-21T10:01:43.874Z,2.80
2017-11-21T10:04:11.375Z,7.57
2017-11-21T10:06:38.893Z,3.17
2017-11-21T10:09:06.361Z,2.40
2017-11-21T10:11:33.858Z,4.77
2017-11-21T10:14:01.361Z,4.23
2017-11-21T10:16:29.610Z,5.60
2017-11-21T10:18:57.158Z,3.93
2017-11-21T10:21:24.662Z,2.77
2017-11-21T10:23:52.140Z,3.60
2017-11-21T10:26:19.647Z,3.40
2017-11-21T10:28:47.149Z,3.10
2017-11-21T10:31:14.651Z,3.57
2017-11-21T10:33:42.161Z,4.73
2017-11-21T10:36:09.660Z,4.17
2017-11-21T10:38:37.198Z,5.47
2017-11-21T10:41:04.679Z,2.70
2017-11-21T10:43:32.191Z,2.77
2017-11-21T10:45:59.683Z,4.47
2017-11-21T10:48:27.982Z,2.57
2017-11-21T10:50:56.255Z,5.43
2017-11-21T10:53:23.813Z,4.20
2017-11-21T10:55:51.351Z,4.70
2017-11-21T10:58:18.901Z,5.50
2017-11-21T11:00:46.389Z,4.17
2017-11-21T11:03:13.993Z,3.17
2017-11-21T11:05:41.529Z,2.00
2017-11-21T11:08:09.903Z,3.53
2017-11-21T11:10:37.505Z,2.03
2017-11-21T11:13:11.809Z,2.43
2017-11-21T11:15:39.378Z,2.80
2017-11-21T11:18:06.895Z,2.20
2017-11-21T11:20:34.377Z,3.73
2017-11-21T11:23:01.862Z,4.13
2017-11-21T11:25:29.417Z,3.63
2017-11-21T11:27:56.936Z,2.67
2017-11-21T11:30:24.418Z,4.60
2017-11-21T11:32:51.950Z,10.77
2017-11-21T11:35:19.456Z,2.50
2017-11-21T11:37:46.942Z,3.83
2017-11-21T11:40:15.203Z,2.80
2017-11-21T11:42:42.769Z,2.40
2017-11-21T11:45:10.247Z,4.57
2017-11-21T11:47:37.751Z,3.03
2017-11-21T11:50:05.254Z,3.00
2017-11-21T11:52:32.889Z,2.22
2017-11-21T11:55:01.143Z,3.53
2017-11-21T11:57:28.633Z,1.93
2017-11-21T11:59:56.147Z,3.53
2017-11-21T12:02:24.652Z,3.83
2017-11-21T12:04:52.911Z,2.57
2017-11-21T12:07:20.588Z,2.30
2017-11-21T12:09:48.088Z,3.13
2017-11-21T12:12:15.675Z,2.47
2017-11-21T12:14:43.163Z,8.83
2017-11-21T12:17:10.732Z,3.20
2017-11-21T12:19:38.204Z,7.00
2017-11-21T12:22:05.695Z,2.37
2017-11-21T12:24:33.187Z,2.37
2017-11-21T12:27:00.822Z,2.80
2017-11-21T12:29:28.407Z,3.47
2017-11-21T12:31:56.840Z,2.57
2017-11-21T12:34:24.395Z,5.97
2017-11-21T12:36:51.904Z,2.90
2017-11-21T12:39:20.154Z,2.60
2017-11-21T12:41:47.663Z,4.40
2017-11-21T12:44:15.203Z,4.40
2017-11-21T12:46:42.698Z,3.60
2017-11-21T12:49:10.185Z,3.53
2017-11-21T12:51:37.675Z,8.50
2017-11-21T12:54:05.210Z,4.23
2017-11-21T12:56:32.712Z,7.33
2017-11-21T12:59:00.222Z,4.43
2017-11-21T13:01:27.715Z,4.40
2017-11-21T13:03:55.251Z,3.47
2017-11-21T13:06:22.880Z,8.33
2017-11-21T13:08:50.448Z,4.60
2017-11-21T13:11:18.721Z,6.37
2017-11-21T13:13:46.221Z,4.33
2017-11-21T13:16:13.726Z,5.50
2017-11-21T13:18:41.221Z,3.90
2017-11-21T13:21:08.724Z,6.17
2017-11-21T13:23:36.217Z,4.70
2017-11-21T13:26:03.709Z,6.10
2017-11-21T13:28:31.197Z,4.43
2017-11-21T13:30:58.682Z,4.23
2017-11-21T13:33:26.199Z,6.20
2017-11-21T13:35:53.702Z,4.30
2017-11-21T13:38:21.281Z,4.30
2017-11-21T13:40:48.756Z,3.97
2017-11-21T13:43:16.259Z,5.77
2017-11-21T13:45:43.774Z,8.43
2017-11-21T13:48:11.285Z,4.80
2017-11-21T13:50:38.760Z,8.90
2017-11-21T13:53:06.282Z,3.33
2017-11-21T13:55:34.079Z,3.33
2017-11-21T13:58:01.607Z,5.13
2017-11-21T14:00:29.128Z,6.53
2017-11-21T14:02:56.621Z,7.73
2017-11-21T14:05:24.881Z,3.30
2017-11-21T14:07:52.381Z,4.70
2017-11-21T14:10:20.650Z,6.20
2017-11-21T14:12:48.139Z,7.13
2017-11-21T14:15:15.612Z,6.67
2017-11-21T14:17:43.952Z,5.73
2017-11-21T14:20:11.428Z,8.20
2017-11-21T14:22:39.765Z,6.43
2017-11-21T14:25:07.286Z,5.37
2017-11-21T14:27:34.782Z,6.47
2017-11-21T14:30:02.290Z,6.50
2017-11-21T14:32:30.541Z,5.93
2017-11-21T14:34:58.054Z,5.50
2017-11-21T14:37:25.607Z,6.30
2017-11-21T14:39:53.194Z,4.50
2017-11-21T14:42:20.734Z,14.00
2017-11-21T14:44:48.290Z,8.17
2017-11-21T14:47:15.774Z,6.73
2017-11-21T14:49:43.413Z,9.30
2017-11-21T14:52:11.693Z,17.23
2017-11-21T14:54:39.197Z,8.60
2017-11-21T14:57:06.801Z,10.57
2017-11-21T14:59:35.133Z,8.30
2017-11-21T15:02:02.646Z,9.33
2017-11-21T15:04:30.153Z,10.43
2017-11-21T15:06:58.563Z,6.40
2017-11-21T15:09:26.050Z,8.43
2017-11-21T15:11:53.574Z,8.63
2017-11-21T15:14:21.119Z,6.53
2017-11-21T15:16:48.675Z,7.57
2017-11-21T15:19:16.242Z,4.17
2017-11-21T15:21:43.747Z,6.17
2017-11-21T15:24:11.321Z,9.07
2017-11-21T15:26:38.808Z,8.30
2017-11-21T15:29:06.287Z,8.93
2017-11-21T15:31:33.782Z,5.40
2017-11-21T15:34:01.260Z,9.00
2017-11-21T15:36:28.933Z,10.00
2017-11-21T15:39:02.748Z,9.00
2017-11-21T15:41:30.338Z,4.60
2017-11-21T15:43:58.498Z,7.30
2017-11-21T15:46:25.988Z,8.10
2017-11-21T15:48:53.584Z,8.07
2017-11-21T15:51:21.115Z,6.53
2017-11-21T15:53:48.589Z,4.07
2017-11-21T15:56:16.126Z,8.93
2017-11-21T15:58:44.382Z,5.63
2017-11-21T16:01:11.924Z,5.50
2017-11-21T16:03:40.152Z,5.50
2017-11-21T16:06:07.678Z,4.97
2017-11-21T16:08:35.146Z,7.60
2017-11-21T16:11:02.769Z,5.47
2017-11-21T16:13:31.207Z,5.90
2017-11-21T16:15:58.700Z,5.70
2017-11-21T16:18:26.329Z,5.43
2017-11-21T16:20:53.831Z,7.47
2017-11-21T16:23:21.307Z,7.87
2017-11-21T16:25:48.797Z,9.80
2017-11-21T16:28:17.162Z,6.63
2017-11-21T16:30:44.675Z,6.30
2017-11-21T16:33:12.144Z,5.43
2017-11-21T16:35:39.693Z,7.63
2017-11-21T16:38:07.186Z,4.53
2017-11-21T16:40:34.688Z,8.67
2017-11-21T16:43:02.393Z,11.33
2017-11-21T16:45:29.973Z,7.17
2017-11-21T16:47:57.570Z,7.60
2017-11-21T16:50:25.087Z,4.90
2017-11-21T16:52:53.382Z,5.50
2017-11-21T16:55:21.000Z,7.20
2017-11-21T16:57:48.500Z,12.07
2017-11-21T17:00:16.006Z,7.07
2017-11-21T17:02:44.254Z,8.40
2017-11-21T17:05:12.546Z,10.47
2017-11-21T17:07:40.061Z,14.10
2017-11-21T17:10:07.561Z,8.80
2017-11-21T17:12:35.060Z,10.33
2017-11-21T17:15:02.628Z,8.43
2017-11-21T17:17:30.110Z,10.93
2017-11-21T17:19:57.810Z,7.00
2017-11-21T17:22:26.113Z,9.03
2017-11-21T17:24:53.657Z,10.87
2017-11-21T17:27:21.173Z,18.43
2017-11-21T17:29:49.448Z,10.60
2017-11-21T17:32:16.942Z,7.40
2017-11-21T17:34:44.535Z,8.40
2017-11-21T17:37:12.834Z,8.23
2017-11-21T17:39:40.324Z,9.60
2017-11-21T17:42:07.865Z,7.87
2017-11-21T17:44:35.751Z,8.23
2017-11-21T17:47:03.432Z,5.70
2017-11-21T17:49:31.709Z,9.63
2017-11-21T17:51:59.265Z,8.63
2017-11-21T17:54:26.751Z,10.47
2017-11-21T17:56:54.259Z,7.53
2017-11-21T17:59:21.765Z,7.97
2017-11-21T18:01:50.101Z,6.90
2017-11-21T18:04:17.593Z,14.10
2017-11-21T18:06:45.086Z,7.43
2017-11-21T18:09:12.598Z,14.27
2017-11-21T18:11:40.853Z,12.60
2017-11-21T18:14:08.363Z,13.10
2017-11-21T18:16:35.840Z,14.27
2017-11-21T18:19:03.338Z,10.90
2017-11-21T18:21:31.002Z,7.67
2017-11-21T18:23:58.473Z,11.33
2017-11-21T18:26:26.908Z,12.03
2017-11-21T18:28:54.428Z,15.00
2017-11-21T18:31:21.970Z,8.43
2017-11-21T18:33:50.280Z,10.63
2017-11-21T18:36:17.763Z,24.43
2017-11-21T18:38:45.436Z,13.30
2017-11-21T18:41:13.738Z,7.77
2017-11-21T18:43:41.991Z,8.30
2017-11-21T18:46:09.498Z,12.40
2017-11-21T18:48:37.732Z,10.30
2017-11-21T18:51:05.204Z,10.17
2017-11-21T18:53:32.702Z,9.17
2017-11-21T18:56:00.205Z,9.47
2017-11-21T18:58:27.705Z,15.67
2017-11-21T19:00:55.343Z,12.60
2017-11-21T19:03:22.842Z,9.67
2017-11-21T19:05:50.389Z,9.20
2017-11-21T19:08:17.869Z,16.30
2017-11-21T19:10:46.270Z,18.13
2017-11-21T19:13:13.772Z,8.67
2017-11-21T19:15:42.101Z,6.07
2017-11-21T19:18:10.411Z,12.40
2017-11-21T19:20:37.908Z,14.10
2017-11-21T19:23:06.153Z,8.20
2017-11-21T19:25:33.675Z,13.23
2017-11-21T19:28:01.255Z,13.80
2017-11-21T19:30:29.521Z,6.83
2017-11-21T19:32:57.122Z,9.73
2017-11-21T19:35:24.602Z,9.50
2017-11-21T19:37:52.099Z,9.70
2017-11-21T19:40:19.605Z,12.30
2017-11-21T19:42:47.091Z,8.17
2017-11-21T19:45:15.449Z,11.40
2017-11-21T19:47:43.009Z,12.37
2017-11-21T19:50:10.515Z,7.73
2017-11-21T19:52:38.010Z,12.63
2017-11-21T19:55:06.262Z,7.73
2017-11-21T19:57:33.825Z,10.80
2017-11-21T20:00:01.314Z,7.30
2017-11-21T20:02:28.891Z,13.97
2017-11-21T20:04:56.615Z,13.10
2017-11-21T20:07:24.197Z,10.50
2017-11-21T20:09:51.713Z,10.53
2017-11-21T20:12:19.201Z,5.00
2017-11-21T20:14:46.695Z,14.03
2017-11-21T20:17:14.230Z,9.87
2017-11-21T20:19:42.489Z,12.00
2017-11-21T20:22:10.726Z,11.20
2017-11-21T20:24:38.237Z,10.13
2017-11-21T20:27:05.948Z,6.40
2017-11-21T20:29:33.511Z,8.73
2017-11-21T20:32:00.996Z,8.00
2017-11-21T20:34:28.475Z,10.47
2017-11-21T20:36:55.988Z,14.03
2017-11-21T20:39:23.604Z,9.50
2017-11-21T20:41:51.090Z,8.70
2017-11-21T20:44:18.604Z,9.27
2017-11-21T20:46:46.174Z,12.00
2017-11-21T20:49:14.438Z,13.40
2017-11-21T20:51:41.936Z,11.03
2017-11-21T20:54:09.487Z,11.37
2017-11-21T20:56:37.140Z,7.87
2017-11-21T20:59:04.692Z,9.90
2017-11-21T21:01:32.930Z,11.23
2017-11-21T21:04:00.676Z,13.20
2017-11-21T21:06:28.148Z,10.20
2017-11-21T21:08:55.644Z,8.93
2017-11-21T21:11:23.127Z,10.13
2017-11-21T21:13:50.606Z,12.23
2017-11-21T21:16:18.112Z,9.90
2017-11-21T21:18:46.355Z,11.50
2017-11-21T21:21:13.902Z,8.73
2017-11-21T21:23:42.165Z,11.03
2017-11-21T21:26:09.739Z,8.20
2017-11-21T21:28:37.229Z,9.20
2017-11-21T21:31:05.022Z,12.83
2017-11-21T21:33:32.634Z,11.80
2017-11-21T21:38:39.204Z,11.83
2017-11-21T21:41:06.733Z,13.77
2017-11-21T21:43:34.217Z,9.30
2017-11-21T21:46:01.933Z,7.90
2017-11-21T21:48:29.441Z,8.37
2017-11-21T21:50:56.905Z,9.30
2017-11-21T21:53:25.168Z,11.40
2017-11-21T21:55:52.701Z,12.53
2017-11-21T21:58:20.205Z,11.00
2017-11-21T22:00:47.702Z,9.80
2017-11-21T22:03:15.204Z,10.30
2017-11-21T22:05:42.704Z,10.83
2017-11-21T22:08:10.213Z,8.80
2017-11-21T22:10:38.546Z,14.50
2017-11-21T22:13:06.810Z,12.17
2017-11-21T22:15:34.314Z,5.50
2017-11-21T22:18:01.800Z,8.63
2017-11-21T22:20:29.284Z,9.87
2017-11-21T22:22:56.940Z,16.33
2017-11-21T22:25:24.461Z,6.30
2017-11-21T22:27:51.928Z,9.77
2017-11-21T22:30:19.426Z,12.53
2017-11-21T22:32:46.910Z,8.30
2017-11-21T22:35:14.499Z,10.93
2017-11-21T22:37:41.969Z,9.33
2017-11-21T22:40:10.392Z,5.87
2017-11-21T22:42:37.898Z,6.00
2017-11-21T22:45:05.398Z,7.80
2017-11-21T22:47:33.691Z,7.03
2017-11-21T22:50:01.184Z,13.77
2017-11-21T22:52:28.724Z,16.23
2017-11-21T22:54:56.276Z,11.43
2017-11-21T22:57:23.783Z,9.07
2017-11-21T22:59:52.021Z,9.33
2017-11-21T23:02:19.617Z,11.47
2017-11-21T23:04:47.085Z,8.53
2017-11-21T23:07:14.580Z,14.60
2017-11-21T23:09:42.046Z,8.03
2017-11-21T23:12:10.303Z,7.73
2017-11-21T23:14:37.817Z,13.50
2017-11-21T23:17:06.081Z,10.40
2017-11-21T23:19:33.565Z,9.17
2017-11-21T23:22:01.045Z,6.10
2017-11-21T23:24:29.287Z,8.80
2017-11-21T23:26:56.779Z,9.93
2017-11-21T23:29:24.261Z,11.03
2017-11-21T23:31:51.762Z,7.17
2017-11-21T23:34:19.294Z,11.20
2017-11-21T23:36:46.798Z,7.00
2017-11-21T23:39:14.274Z,13.53
2017-11-21T23:41:42.539Z,9.00
2017-11-21T23:44:10.895Z,14.53
2017-11-21T23:46:39.141Z,10.73
2017-11-21T23:49:06.639Z,11.60
2017-11-21T23:51:34.134Z,13.20
2017-11-21T23:54:01.642Z,11.83
2017-11-21T23:56:29.117Z,8.00
2017-11-21T23:58:56.589Z,14.13
